AirNav   Everest Fuels
 
 1087 users online  

33FL Flying S Ranch Airport
Kenansville, Florida, USA

GOING TO KENANSVILLE?


FAA INFORMATION EFFECTIVE 22 APRIL 2021

Location

FAA Identifier: 33FL
Lat/Long: 27-51-39.1000N 080-59-59.5000W
27-51.651667N 080-59.991667W
27.8608611,-80.9998611
(estimated)
Elevation: 72 ft. / 22 m (estimated)
From city: 2 miles S of KENANSVILLE, FL
Time zone: UTC -4 (UTC -5 during Standard Time)
Zip code: 34739

Airport Operations

Airport use: Private use. Permission required prior to landing
Activation date: 09/2008
Control tower: no
ARTCC: MIAMI CENTER
FSS: SAINT PETERSBURG FLIGHT SERVICE STATION
Attendance: MON-SAT 0800-DUSK
Wind indicator: yes
Segmented circle: no

Nearby radio navigation aids

VOR radial/distance  VOR name  Freq  Var
MLBr240/24.3MELBOURNE VOR/DME110.0007W
TRVr299/29.2TREASURE VORTAC117.3007W

Airport Services

Runway Information

Runway 4/22

Dimensions: 3800 x 100 ft. / 1158 x 30 m
Surface: turf, in good condition
Runway edge markings: RY 22 MARKED WITH 3 FT ORANGE CONES.
RUNWAY 4  RUNWAY 22
Traffic pattern: leftleft
Displaced threshold: 300 ft.
RY 04 DSPLCD THLD MARKED WITH ORANGE CONES.
300 ft.
RY 22 DSPLCD THLD MARKED WITH ORANGE CONES.

Airport Ownership and Management from official FAA records

Ownership: Privately-owned
Owner: YEEHAW RANCH LAND, LLC
1300 CITIZENS BLVD., STE 300
LEESBURG, FL 34748
Phone 352-267-5984
Manager: BRUCE G. DUNCAN
1300 CITIZEN BLVD., STE 300
LEESBURG, FL 34748
Phone 352-267-5984

Airport Operational Statistics

Aircraft based on the field: 5
Single engine airplanes: 4
Multi engine airplanes: 1
    

Additional Remarks

FOR CD CTC MIAMI ARTCC AT 305-716-1731.

Instrument Procedures

There are no published instrument procedures at 33FL.

Some nearby airports with instrument procedures:

KMLB - Melbourne International Airport (24 nm NE)
X26 - Sebastian Municipal Airport (27 nm E)
KSEF - Sebring Regional Airport (30 nm SW)
KCOF - Patrick Air Force Base (30 nm NE)
KAVO - Avon Park Executive Airport (32 nm SW)
 
Loc | Ops | Rwys | IFR | FBO | Links
Com | Nav | Svcs | Stats | Notes


 
Aerial photo
No photo
 
Sectional chart

 
Airport distance calculator
Flying to Flying S Ranch Airport? Find the distance to fly.

From to 33FL

Sunrise and sunset
Times for 15-May-2021
 Local
(UTC-4)
 Zulu
(UTC)
Morning civil twilight06:1010:10
Sunrise06:3610:36
Sunset20:0500:05
Evening civil twilight20:3100:31

Current date and time
Zulu (UTC)  15-May-2021 21:33:15
Local (UTC-4)  15-May-2021 17:33:15
 
METAR
KMLB 
23nm NE 
152053Z 04016G23KT 10SM CLR 27/14 A3010 RMK AO2 SLP191 T02720144 58015
KX26 
27nm E 
152115Z AUTO 03014G21KT 10SM SCT043 SCT050 27/15 A3011 RMK AO2 T02660153
KSEF 
30nm SW 
152115Z AUTO 04015G21KT 10SM BKN055 28/15 A3008 RMK AO2 T02850149
KCOF 
31nm NE 
151756Z AUTO 02015KT 10SM FEW200 28/13 A3014 RMK AO2 SLP211 T02760128 10278 20242 58005 $
KX07 
33nm W 
152115Z AUTO 07011KT 10SM FEW060 28/15 A3011 RMK A01
KVRB 
33nm E 
152053Z 03013KT 10SM SCT044 27/16 A3010 RMK AO2 SLP193 T02720161 58013
KISM 
34nm NW 
152056Z 08016G19KT 10SM FEW070 27/13 A3012 RMK AO2 SLP200 6//// T02720133 56012 PNO $
KOBE 
37nm S 
152115Z AUTO 05012G18KT BKN050 BKN060 27/15 A3007 RMK AO2
KMCO 
38nm NW 
152053Z 07016KT 10SM FEW060 FEW080 SCT250 27/12 A3012 RMK AO2 SLP197 T02670117 58012
KFPR 
39nm SE 
152053Z 03010G18KT 10SM FEW037 27/15 A3009 RMK AO2 SLP189 T02720150 56014
TAF
KMLB 
23nm NE 
151735Z 1518/1618 04017G24KT P6SM SCT050 FM160300 06012KT P6SM FEW050 FM161500 06014G20KT P6SM SCT050
NOTAMs
Click for the latest NOTAMs
NOTAMs are issued by the DoD/FAA and will open in a separate window not controlled by AirNav.

 

 
 

Would you like to see your business listed on this page?

 If your business provides an interesting product or service to pilots, flight crews, aircraft, or users of the Flying S Ranch Airport, you should consider listing it here.  To start the listing process, click on the button below
 
Add a business
 

Other Pages about Flying S Ranch Airport

Update a link
 
Copyright © AirNav, LLC. All rights reserved. Privacy Policy  Contact